Holyrood, Kansas
Current Conditions -  °F | °C
As of 11:53 PM on Thursday 30 Oct 2014 (Local Time) from KRSL Reporting Station
Clear Clear  
Wind Chill: 40°   Ceiling: Unl
Heat Index: 46°   Visibility: 10mi
Dew Point: 35°   Wind: 14mph
Humidity: 66%   Direction: 10°N
Pressure: 30.36"   Gusts: NA
Location:  38.59°N, 98.41°W
Report Text: KRSL 310453Z AUTO 01012KT 10SM CLR 08/02 A3036 RMK AO2 SLP282 T00780017
Loading
Personal Weather Stations






























Interactive Weather Map
Tropical Storm Tracking
New forecast layout! Learn more

10-Day Weather Forecast

Advertisements
Track Severe Weather on mobile